sensor_id;sensor_type;location;lat;lon;timestamp;temperature;humidity
68139;DHT22;54940;50.842;4.410;2022-09-16T00:01:19;15.10;99.90
68139;DHT22;54940;50.842;4.410;2022-09-16T00:03:46;15.00;99.90
68139;DHT22;54940;50.842;4.410;2022-09-16T00:06:34;15.00;99.90
68139;DHT22;54940;50.842;4.410;2022-09-16T00:09:00;15.10;99.90
68139;DHT22;54940;50.842;4.410;2022-09-16T00:11:26;15.00;99.90
68139;DHT22;54940;50.842;4.410;2022-09-16T00:13:52;15.00;99.90
68139;DHT22;54940;50.842;4.410;2022-09-16T00:16:24;15.10;99.90
68139;DHT22;54940;50.842;4.410;2022-09-16T00:18:57;15.10;99.90
68139;DHT22;54940;50.842;4.410;2022-09-16T00:21:24;15.10;99.90
68139;DHT22;54940;50.842;4.410;2022-09-16T00:23:50;15.00;99.90
68139;DHT22;54940;50.842;4.410;2022-09-16T00:26:16;15.10;99.90
68139;DHT22;54940;50.842;4.410;2022-09-16T00:28:42;15.10;99.90
68139;DHT22;54940;50.842;4.410;2022-09-16T00:31:08;15.10;99.90
68139;DHT22;54940;50.842;4.410;2022-09-16T00:33:33;15.00;99.90
68139;DHT22;54940;50.842;4.410;2022-09-16T00:36:13;15.00;99.90
68139;DHT22;54940;50.842;4.410;2022-09-16T00:38:40;15.00;99.90
68139;DHT22;54940;50.842;4.410;2022-09-16T00:41:06;15.00;99.90
68139;DHT22;54940;50.842;4.410;2022-09-16T00:43:47;15.00;99.90
68139;DHT22;54940;50.842;4.410;2022-09-16T00:46:13;15.00;99.90
68139;DHT22;54940;50.842;4.410;2022-09-16T00:48:40;15.00;99.90
68139;DHT22;54940;50.842;4.410;2022-09-16T00:51:08;15.00;99.90
68139;DHT22;54940;50.842;4.410;2022-09-16T00:53:39;15.00;99.90
68139;DHT22;54940;50.842;4.410;2022-09-16T00:56:08;15.10;99.90
68139;DHT22;54940;50.842;4.410;2022-09-16T00:58:50;15.10;99.90
68139;DHT22;54940;50.842;4.410;2022-09-16T01:01:18;15.00;99.90
68139;DHT22;54940;50.842;4.410;2022-09-16T01:03:48;15.00;99.90
68139;DHT22;54940;50.842;4.410;2022-09-16T01:06:17;15.00;99.90
68139;DHT22;54940;50.842;4.410;2022-09-16T01:08:44;15.00;99.90
68139;DHT22;54940;50.842;4.410;2022-09-16T01:11:10;14.90;99.90
68139;DHT22;54940;50.842;4.410;2022-09-16T01:13:37;14.80;99.90
68139;DHT22;54940;50.842;4.410;2022-09-16T01:16:15;14.80;99.90
68139;DHT22;54940;50.842;4.410;2022-09-16T01:31:46;14.70;99.90
68139;DHT22;54940;50.842;4.410;2022-09-16T01:34:25;14.50;99.90
68139;DHT22;54940;50.842;4.410;2022-09-16T01:36:56;14.40;99.90
68139;DHT22;54940;50.842;4.410;2022-09-16T01:42:41;14.60;99.90
68139;DHT22;54940;50.842;4.410;2022-09-16T01:54:22;14.50;99.90
68139;DHT22;54940;50.842;4.410;2022-09-16T01:56:27;14.50;99.90
68139;DHT22;54940;50.842;4.410;2022-09-16T01:58:59;14.40;99.90
68139;DHT22;54940;50.842;4.410;2022-09-16T02:02:39;14.20;99.90
68139;DHT22;54940;50.842;4.410;2022-09-16T02:04:36;14.30;99.90
68139;DHT22;54940;50.842;4.410;2022-09-16T02:07:07;14.30;99.90
68139;DHT22;54940;50.842;4.410;2022-09-16T02:09:39;14.30;99.90
68139;DHT22;54940;50.842;4.410;2022-09-16T02:12:20;14.40;99.90
68139;DHT22;54940;50.842;4.410;2022-09-16T02:14:48;14.50;99.90
68139;DHT22;54940;50.842;4.410;2022-09-16T02:17:20;14.40;99.90
68139;DHT22;54940;50.842;4.410;2022-09-16T02:19:56;14.40;99.90
68139;DHT22;54940;50.842;4.410;2022-09-16T02:22:31;14.30;99.90
68139;DHT22;54940;50.842;4.410;2022-09-16T02:25:00;14.30;99.90
68139;DHT22;54940;50.842;4.410;2022-09-16T02:27:28;14.40;99.90
68139;DHT22;54940;50.842;4.410;2022-09-16T02:29:59;14.40;99.90
68139;DHT22;54940;50.842;4.410;2022-09-16T02:32:27;14.40;99.90
68139;DHT22;54940;50.842;4.410;2022-09-16T02:34:57;14.40;99.90
68139;DHT22;54940;50.842;4.410;2022-09-16T02:37:33;14.40;99.90
68139;DHT22;54940;50.842;4.410;2022-09-16T02:40:04;14.60;99.90
68139;DHT22;54940;50.842;4.410;2022-09-16T02:42:33;14.40;99.90
68139;DHT22;54940;50.842;4.410;2022-09-16T02:44:59;14.40;99.90
68139;DHT22;54940;50.842;4.410;2022-09-16T02:47:46;14.40;99.90
68139;DHT22;54940;50.842;4.410;2022-09-16T02:52:59;14.50;99.90
68139;DHT22;54940;50.842;4.410;2022-09-16T02:57:55;14.50;99.90
68139;DHT22;54940;50.842;4.410;2022-09-16T03:00:21;14.50;99.90
68139;DHT22;54940;50.842;4.410;2022-09-16T03:02:47;14.40;99.90
68139;DHT22;54940;50.842;4.410;2022-09-16T03:05:13;14.50;99.90
68139;DHT22;54940;50.842;4.410;2022-09-16T03:07:39;14.40;99.90
68139;DHT22;54940;50.842;4.410;2022-09-16T03:10:08;14.30;99.90
68139;DHT22;54940;50.842;4.410;2022-09-16T03:12:41;14.30;99.90
68139;DHT22;54940;50.842;4.410;2022-09-16T03:24:03;14.30;99.90
68139;DHT22;54940;50.842;4.410;2022-09-16T03:29:41;14.10;99.90
68139;DHT22;54940;50.842;4.410;2022-09-16T03:32:15;14.10;99.90
68139;DHT22;54940;50.842;4.410;2022-09-16T03:37:22;14.20;99.90
68139;DHT22;54940;50.842;4.410;2022-09-16T03:39:55;14.30;99.90
68139;DHT22;54940;50.842;4.410;2022-09-16T03:42:22;14.20;99.90
68139;DHT22;54940;50.842;4.410;2022-09-16T03:44:47;14.20;99.90
68139;DHT22;54940;50.842;4.410;2022-09-16T03:47:14;14.10;99.90
68139;DHT22;54940;50.842;4.410;2022-09-16T03:49:40;14.20;99.90
68139;DHT22;54940;50.842;4.410;2022-09-16T03:52:06;14.30;99.90
68139;DHT22;54940;50.842;4.410;2022-09-16T03:54:33;14.30;99.90
68139;DHT22;54940;50.842;4.410;2022-09-16T03:56:59;14.40;99.90
68139;DHT22;54940;50.842;4.410;2022-09-16T03:59:26;14.50;99.90
68139;DHT22;54940;50.842;4.410;2022-09-16T04:01:51;14.50;99.90
68139;DHT22;54940;50.842;4.410;2022-09-16T04:04:17;14.50;99.90
68139;DHT22;54940;50.842;4.410;2022-09-16T04:06:43;14.40;99.90
68139;DHT22;54940;50.842;4.410;2022-09-16T04:09:11;14.30;99.90
68139;DHT22;54940;50.842;4.410;2022-09-16T04:11:40;14.20;99.90
68139;DHT22;54940;50.842;4.410;2022-09-16T04:14:06;14.10;99.90
68139;DHT22;54940;50.842;4.410;2022-09-16T04:16:32;14.00;99.90
68139;DHT22;54940;50.842;4.410;2022-09-16T04:18:58;14.10;99.90
68139;DHT22;54940;50.842;4.410;2022-09-16T04:21:24;14.10;99.90
68139;DHT22;54940;50.842;4.410;2022-09-16T04:23:50;14.10;99.90
68139;DHT22;54940;50.842;4.410;2022-09-16T04:26:16;14.20;99.90
68139;DHT22;54940;50.842;4.410;2022-09-16T04:28:42;14.20;99.90
68139;DHT22;54940;50.842;4.410;2022-09-16T04:31:13;14.30;99.90
68139;DHT22;54940;50.842;4.410;2022-09-16T04:33:40;14.30;99.90
68139;DHT22;54940;50.842;4.410;2022-09-16T04:36:08;14.20;99.90
68139;DHT22;54940;50.842;4.410;2022-09-16T04:38:35;14.10;99.90
68139;DHT22;54940;50.842;4.410;2022-09-16T04:41:05;14.00;99.90
68139;DHT22;54940;50.842;4.410;2022-09-16T04:43:31;14.10;99.90
68139;DHT22;54940;50.842;4.410;2022-09-16T04:45:57;14.10;99.90
68139;DHT22;54940;50.842;4.410;2022-09-16T04:48:23;14.10;99.90
68139;DHT22;54940;50.842;4.410;2022-09-16T04:50:50;14.10;99.90
68139;DHT22;54940;50.842;4.410;2022-09-16T04:53:16;14.00;99.90
68139;DHT22;54940;50.842;4.410;2022-09-16T04:55:43;13.90;99.90
68139;DHT22;54940;50.842;4.410;2022-09-16T04:58:09;13.80;99.90
68139;DHT22;54940;50.842;4.410;2022-09-16T05:00:35;13.90;99.90
68139;DHT22;54940;50.842;4.410;2022-09-16T05:03:01;13.90;99.90
68139;DHT22;54940;50.842;4.410;2022-09-16T05:05:26;14.00;99.90
68139;DHT22;54940;50.842;4.410;2022-09-16T05:07:52;14.00;99.90
68139;DHT22;54940;50.842;4.410;2022-09-16T05:10:18;14.00;99.90
68139;DHT22;54940;50.842;4.410;2022-09-16T05:12:43;14.10;99.90
68139;DHT22;54940;50.842;4.410;2022-09-16T05:15:09;14.20;99.90
68139;DHT22;54940;50.842;4.410;2022-09-16T05:17:34;14.20;99.90
68139;DHT22;54940;50.842;4.410;2022-09-16T05:20:00;14.10;99.90
68139;DHT22;54940;50.842;4.410;2022-09-16T05:22:26;14.00;99.90
68139;DHT22;54940;50.842;4.410;2022-09-16T05:24:52;14.00;99.90
68139;DHT22;54940;50.842;4.410;2022-09-16T05:27:17;14.00;99.90
68139;DHT22;54940;50.842;4.410;2022-09-16T05:29:43;13.90;99.90
68139;DHT22;54940;50.842;4.410;2022-09-16T05:32:09;13.80;99.90
68139;DHT22;54940;50.842;4.410;2022-09-16T05:34:34;13.80;99.90
68139;DHT22;54940;50.842;4.410;2022-09-16T05:37:01;13.90;99.90
68139;DHT22;54940;50.842;4.410;2022-09-16T05:39:26;14.00;99.90
68139;DHT22;54940;50.842;4.410;2022-09-16T05:41:55;14.20;99.90
68139;DHT22;54940;50.842;4.410;2022-09-16T05:44:21;14.20;99.90
68139;DHT22;54940;50.842;4.410;2022-09-16T05:46:47;14.20;99.90
68139;DHT22;54940;50.842;4.410;2022-09-16T05:49:13;14.20;99.90
68139;DHT22;54940;50.842;4.410;2022-09-16T05:51:44;14.20;99.90
68139;DHT22;54940;50.842;4.410;2022-09-16T05:54:11;14.10;99.90
68139;DHT22;54940;50.842;4.410;2022-09-16T05:56:37;14.00;99.90
68139;DHT22;54940;50.842;4.410;2022-09-16T05:59:03;13.90;99.90
68139;DHT22;54940;50.842;4.410;2022-09-16T06:01:31;13.80;99.90
68139;DHT22;54940;50.842;4.410;2022-09-16T06:04:00;13.80;99.90
68139;DHT22;54940;50.842;4.410;2022-09-16T06:06:34;13.70;99.90
68139;DHT22;54940;50.842;4.410;2022-09-16T06:09:05;13.70;99.90
68139;DHT22;54940;50.842;4.410;2022-09-16T06:11:39;13.60;99.90
68139;DHT22;54940;50.842;4.410;2022-09-16T06:14:05;13.80;99.90
68139;DHT22;54940;50.842;4.410;2022-09-16T06:16:31;13.80;99.90
68139;DHT22;54940;50.842;4.410;2022-09-16T06:19:01;13.80;99.90
68139;DHT22;54940;50.842;4.410;2022-09-16T06:21:28;13.90;99.90
68139;DHT22;54940;50.842;4.410;2022-09-16T06:23:54;13.80;99.90
68139;DHT22;54940;50.842;4.410;2022-09-16T06:26:22;13.80;99.90
68139;DHT22;54940;50.842;4.410;2022-09-16T06:28:49;13.80;99.90
68139;DHT22;54940;50.842;4.410;2022-09-16T06:31:16;13.70;99.90
68139;DHT22;54940;50.842;4.410;2022-09-16T06:33:42;13.60;99.90
68139;DHT22;54940;50.842;4.410;2022-09-16T06:36:14;13.70;99.90
68139;DHT22;54940;50.842;4.410;2022-09-16T06:38:40;13.80;99.90
68139;DHT22;54940;50.842;4.410;2022-09-16T06:41:08;13.90;99.90
68139;DHT22;54940;50.842;4.410;2022-09-16T06:43:34;14.00;99.90
68139;DHT22;54940;50.842;4.410;2022-09-16T06:46:03;13.90;99.90
68139;DHT22;54940;50.842;4.410;2022-09-16T06:48:32;14.00;99.90
68139;DHT22;54940;50.842;4.410;2022-09-16T06:51:06;14.00;99.90
68139;DHT22;54940;50.842;4.410;2022-09-16T06:53:33;14.10;99.90
68139;DHT22;54940;50.842;4.410;2022-09-16T06:56:02;14.10;99.90
68139;DHT22;54940;50.842;4.410;2022-09-16T06:58:31;14.00;99.90
68139;DHT22;54940;50.842;4.410;2022-09-16T07:00:58;14.00;99.90
68139;DHT22;54940;50.842;4.410;2022-09-16T07:03:24;13.80;99.90
68139;DHT22;54940;50.842;4.410;2022-09-16T07:05:57;13.80;99.90
68139;DHT22;54940;50.842;4.410;2022-09-16T07:08:22;14.00;99.90
68139;DHT22;54940;50.842;4.410;2022-09-16T07:10:59;14.00;99.90
68139;DHT22;54940;50.842;4.410;2022-09-16T07:13:26;13.90;99.90
68139;DHT22;54940;50.842;4.410;2022-09-16T07:15:52;13.90;99.90
68139;DHT22;54940;50.842;4.410;2022-09-16T07:18:18;13.90;99.90
68139;DHT22;54940;50.842;4.410;2022-09-16T07:20:44;13.90;99.90
68139;DHT22;54940;50.842;4.410;2022-09-16T07:23:10;14.00;99.90
68139;DHT22;54940;50.842;4.410;2022-09-16T07:25:35;14.00;99.90
68139;DHT22;54940;50.842;4.410;2022-09-16T07:28:01;14.00;99.90
68139;DHT22;54940;50.842;4.410;2022-09-16T07:30:28;13.90;99.90
68139;DHT22;54940;50.842;4.410;2022-09-16T07:32:55;13.90;99.90
68139;DHT22;54940;50.842;4.410;2022-09-16T07:35:21;13.80;99.90
68139;DHT22;54940;50.842;4.410;2022-09-16T07:37:47;13.70;99.90
68139;DHT22;54940;50.842;4.410;2022-09-16T07:40:13;13.60;99.90
68139;DHT22;54940;50.842;4.410;2022-09-16T07:42:39;13.60;99.90
68139;DHT22;54940;50.842;4.410;2022-09-16T07:45:05;13.60;99.90
68139;DHT22;54940;50.842;4.410;2022-09-16T07:47:31;13.70;99.90
68139;DHT22;54940;50.842;4.410;2022-09-16T07:49:57;13.70;99.90
68139;DHT22;54940;50.842;4.410;2022-09-16T07:52:23;13.70;99.90
68139;DHT22;54940;50.842;4.410;2022-09-16T07:54:57;13.60;99.90
68139;DHT22;54940;50.842;4.410;2022-09-16T07:57:22;13.70;99.90
68139;DHT22;54940;50.842;4.410;2022-09-16T07:59:48;13.80;99.90
68139;DHT22;54940;50.842;4.410;2022-09-16T08:02:15;14.00;99.90
68139;DHT22;54940;50.842;4.410;2022-09-16T08:04:41;13.80;99.90
68139;DHT22;54940;50.842;4.410;2022-09-16T08:07:07;13.80;99.90
68139;DHT22;54940;50.842;4.410;2022-09-16T08:09:33;13.90;99.90
68139;DHT22;54940;50.842;4.410;2022-09-16T08:12:01;14.00;99.90
68139;DHT22;54940;50.842;4.410;2022-09-16T08:14:27;14.10;99.90
68139;DHT22;54940;50.842;4.410;2022-09-16T08:16:53;14.20;99.90
68139;DHT22;54940;50.842;4.410;2022-09-16T08:19:19;14.10;99.90
68139;DHT22;54940;50.842;4.410;2022-09-16T08:21:46;14.20;99.90
68139;DHT22;54940;50.842;4.410;2022-09-16T08:24:12;14.20;99.90
68139;DHT22;54940;50.842;4.410;2022-09-16T08:26:38;14.20;99.90
68139;DHT22;54940;50.842;4.410;2022-09-16T08:29:04;14.20;99.90
68139;DHT22;54940;50.842;4.410;2022-09-16T08:31:31;14.30;99.90
68139;DHT22;54940;50.842;4.410;2022-09-16T08:33:57;14.40;99.90
68139;DHT22;54940;50.842;4.410;2022-09-16T08:36:24;14.30;99.90
68139;DHT22;54940;50.842;4.410;2022-09-16T08:38:53;14.30;99.90
68139;DHT22;54940;50.842;4.410;2022-09-16T08:44:33;14.30;99.90
68139;DHT22;54940;50.842;4.410;2022-09-16T08:47:04;14.30;99.90
68139;DHT22;54940;50.842;4.410;2022-09-16T08:49:43;14.20;99.90
68139;DHT22;54940;50.842;4.410;2022-09-16T08:52:14;13.90;99.90
68139;DHT22;54940;50.842;4.410;2022-09-16T08:54:43;13.80;99.90
68139;DHT22;54940;50.842;4.410;2022-09-16T08:57:16;13.80;99.90
68139;DHT22;54940;50.842;4.410;2022-09-16T09:00:19;13.70;99.90
68139;DHT22;54940;50.842;4.410;2022-09-16T09:05:51;13.80;99.90
68139;DHT22;54940;50.842;4.410;2022-09-16T09:10:51;13.70;99.90
68139;DHT22;54940;50.842;4.410;2022-09-16T09:16:36;13.80;99.90
68139;DHT22;54940;50.842;4.410;2022-09-16T09:22:05;13.90;99.90
68139;DHT22;54940;50.842;4.410;2022-09-16T09:27:16;14.00;99.90
68139;DHT22;54940;50.842;4.410;2022-09-16T09:46:58;14.30;99.90
68139;DHT22;54940;50.842;4.410;2022-09-16T09:49:45;14.70;99.90
68139;DHT22;54940;50.842;4.410;2022-09-16T09:52:25;14.90;99.90
68139;DHT22;54940;50.842;4.410;2022-09-16T09:54:52;15.10;99.90
68139;DHT22;54940;50.842;4.410;2022-09-16T09:57:40;15.10;99.90
68139;DHT22;54940;50.842;4.410;2022-09-16T10:00:17;15.00;99.90
68139;DHT22;54940;50.842;4.410;2022-09-16T10:02:46;15.20;99.90
68139;DHT22;54940;50.842;4.410;2022-09-16T10:05:24;15.70;99.90
68139;DHT22;54940;50.842;4.410;2022-09-16T10:07:57;15.70;99.90
68139;DHT22;54940;50.842;4.410;2022-09-16T10:10:25;15.70;99.90
68139;DHT22;54940;50.842;4.410;2022-09-16T10:12:51;15.80;99.90
68139;DHT22;54940;50.842;4.410;2022-09-16T10:15:28;16.00;99.90
68139;DHT22;54940;50.842;4.410;2022-09-16T10:17:56;15.90;99.90
68139;DHT22;54940;50.842;4.410;2022-09-16T10:20:32;15.90;99.90
68139;DHT22;54940;50.842;4.410;2022-09-16T10:23:05;16.00;99.90
68139;DHT22;54940;50.842;4.410;2022-09-16T10:25:32;16.20;99.90
68139;DHT22;54940;50.842;4.410;2022-09-16T10:28:04;16.60;99.90
68139;DHT22;54940;50.842;4.410;2022-09-16T10:30:51;16.50;99.90
68139;DHT22;54940;50.842;4.410;2022-09-16T10:33:41;16.50;99.90
68139;DHT22;54940;50.842;4.410;2022-09-16T10:36:09;16.30;99.90
68139;DHT22;54940;50.842;4.410;2022-09-16T10:38:43;16.20;99.90
68139;DHT22;54940;50.842;4.410;2022-09-16T10:41:27;16.10;99.90
68139;DHT22;54940;50.842;4.410;2022-09-16T10:43:59;15.50;99.90
68139;DHT22;54940;50.842;4.410;2022-09-16T10:46:27;15.00;99.90
68139;DHT22;54940;50.842;4.410;2022-09-16T10:48:58;14.90;99.90
68139;DHT22;54940;50.842;4.410;2022-09-16T10:51:27;14.80;99.90
68139;DHT22;54940;50.842;4.410;2022-09-16T10:53:58;14.80;99.90
68139;DHT22;54940;50.842;4.410;2022-09-16T10:56:29;15.00;99.90
68139;DHT22;54940;50.842;4.410;2022-09-16T10:59:09;15.10;99.90
68139;DHT22;54940;50.842;4.410;2022-09-16T11:02:38;15.20;99.90
68139;DHT22;54940;50.842;4.410;2022-09-16T11:07:41;15.40;99.90
68139;DHT22;54940;50.842;4.410;2022-09-16T11:10:23;15.70;99.90
68139;DHT22;54940;50.842;4.410;2022-09-16T11:16:21;15.90;99.90
68139;DHT22;54940;50.842;4.410;2022-09-16T11:30:32;15.70;99.90
68139;DHT22;54940;50.842;4.410;2022-09-16T11:41:06;15.50;99.90
68139;DHT22;54940;50.842;4.410;2022-09-16T12:00:48;14.60;99.90
68139;DHT22;54940;50.842;4.410;2022-09-16T12:03:41;14.50;99.90
68139;DHT22;54940;50.842;4.410;2022-09-16T12:06:15;14.40;99.90
68139;DHT22;54940;50.842;4.410;2022-09-16T12:09:04;14.20;99.90
68139;DHT22;54940;50.842;4.410;2022-09-16T12:11:47;14.20;99.90
68139;DHT22;54940;50.842;4.410;2022-09-16T12:14:21;14.00;99.90
68139;DHT22;54940;50.842;4.410;2022-09-16T12:16:52;14.00;99.90
68139;DHT22;54940;50.842;4.410;2022-09-16T12:19:36;14.00;99.90
68139;DHT22;54940;50.842;4.410;2022-09-16T12:22:11;14.10;99.90
68139;DHT22;54940;50.842;4.410;2022-09-16T12:24:43;14.10;99.90
68139;DHT22;54940;50.842;4.410;2022-09-16T12:29:54;14.00;99.90
68139;DHT22;54940;50.842;4.410;2022-09-16T12:35:30;14.10;99.90
68139;DHT22;54940;50.842;4.410;2022-09-16T12:37:57;14.30;99.90
68139;DHT22;54940;50.842;4.410;2022-09-16T12:40:27;14.40;99.90
68139;DHT22;54940;50.842;4.410;2022-09-16T12:46:20;14.50;99.90
68139;DHT22;54940;50.842;4.410;2022-09-16T13:03:09;14.90;99.90
68139;DHT22;54940;50.842;4.410;2022-09-16T13:05:38;14.90;99.90
68139;DHT22;54940;50.842;4.410;2022-09-16T13:08:26;15.00;99.90
68139;DHT22;54940;50.842;4.410;2022-09-16T13:10:58;15.10;99.90
68139;DHT22;54940;50.842;4.410;2022-09-16T13:13:41;15.20;99.90
68139;DHT22;54940;50.842;4.410;2022-09-16T13:16:10;15.10;99.90
68139;DHT22;54940;50.842;4.410;2022-09-16T13:19:17;15.00;99.90
68139;DHT22;54940;50.842;4.410;2022-09-16T13:21:46;15.00;99.90
68139;DHT22;54940;50.842;4.410;2022-09-16T13:24:36;15.20;99.90
68139;DHT22;54940;50.842;4.410;2022-09-16T13:27:22;15.20;99.90
68139;DHT22;54940;50.842;4.410;2022-09-16T13:29:48;15.20;99.90
68139;DHT22;54940;50.842;4.410;2022-09-16T13:32:36;15.20;99.90
68139;DHT22;54940;50.842;4.410;2022-09-16T13:35:20;15.20;99.90
68139;DHT22;54940;50.842;4.410;2022-09-16T13:37:51;15.10;99.90
68139;DHT22;54940;50.842;4.410;2022-09-16T13:40:24;15.20;99.90
68139;DHT22;54940;50.842;4.410;2022-09-16T13:42:50;15.20;99.90
68139;DHT22;54940;50.842;4.410;2022-09-16T13:48:16;14.00;99.90
68139;DHT22;54940;50.842;4.410;2022-09-16T13:50:57;13.80;99.90
68139;DHT22;54940;50.842;4.410;2022-09-16T13:53:29;13.70;99.90
68139;DHT22;54940;50.842;4.410;2022-09-16T14:01:37;14.10;99.90
68139;DHT22;54940;50.842;4.410;2022-09-16T14:07:05;14.40;99.90
68139;DHT22;54940;50.842;4.410;2022-09-16T14:09:59;14.60;99.90
68139;DHT22;54940;50.842;4.410;2022-09-16T14:12:48;14.80;99.90
68139;DHT22;54940;50.842;4.410;2022-09-16T14:15:16;15.00;99.90
68139;DHT22;54940;50.842;4.410;2022-09-16T14:17:46;15.00;99.90
68139;DHT22;54940;50.842;4.410;2022-09-16T14:20:14;15.00;99.90
68139;DHT22;54940;50.842;4.410;2022-09-16T14:22:41;15.00;99.90
68139;DHT22;54940;50.842;4.410;2022-09-16T14:25:30;15.00;99.90
68139;DHT22;54940;50.842;4.410;2022-09-16T14:28:26;14.80;99.90
68139;DHT22;54940;50.842;4.410;2022-09-16T14:33:29;14.70;99.90
68139;DHT22;54940;50.842;4.410;2022-09-16T14:35:57;14.70;99.90
68139;DHT22;54940;50.842;4.410;2022-09-16T14:38:44;14.60;99.90
68139;DHT22;54940;50.842;4.410;2022-09-16T14:41:28;14.60;99.90
68139;DHT22;54940;50.842;4.410;2022-09-16T14:44:31;14.40;99.90
68139;DHT22;54940;50.842;4.410;2022-09-16T14:46:57;14.30;99.90
68139;DHT22;54940;50.842;4.410;2022-09-16T14:49:24;14.20;99.90
68139;DHT22;54940;50.842;4.410;2022-09-16T14:51:55;13.90;99.90
68139;DHT22;54940;50.842;4.410;2022-09-16T14:54:23;13.70;99.90
68139;DHT22;54940;50.842;4.410;2022-09-16T14:57:05;13.60;99.90
68139;DHT22;54940;50.842;4.410;2022-09-16T14:59:33;13.50;99.90
68139;DHT22;54940;50.842;4.410;2022-09-16T15:04:39;13.60;99.90
68139;DHT22;54940;50.842;4.410;2022-09-16T15:07:12;13.80;99.90
68139;DHT22;54940;50.842;4.410;2022-09-16T15:12:27;13.80;99.90
68139;DHT22;54940;50.842;4.410;2022-09-16T15:14:54;13.90;99.90
68139;DHT22;54940;50.842;4.410;2022-09-16T15:17:21;14.00;99.90
68139;DHT22;54940;50.842;4.410;2022-09-16T15:19:55;13.90;99.90
68139;DHT22;54940;50.842;4.410;2022-09-16T15:22:22;14.00;99.90
68139;DHT22;54940;50.842;4.410;2022-09-16T15:24:51;14.10;99.90
68139;DHT22;54940;50.842;4.410;2022-09-16T15:27:22;14.20;99.90
68139;DHT22;54940;50.842;4.410;2022-09-16T15:29:58;14.00;99.90
68139;DHT22;54940;50.842;4.410;2022-09-16T15:32:27;13.90;99.90
68139;DHT22;54940;50.842;4.410;2022-09-16T15:35:20;13.80;99.90
68139;DHT22;54940;50.842;4.410;2022-09-16T15:37:46;13.80;99.90
68139;DHT22;54940;50.842;4.410;2022-09-16T15:45:28;13.80;99.90
68139;DHT22;54940;50.842;4.410;2022-09-16T15:47:59;13.80;99.90
68139;DHT22;54940;50.842;4.410;2022-09-16T15:50:28;13.80;99.90
68139;DHT22;54940;50.842;4.410;2022-09-16T15:53:05;13.70;99.90
68139;DHT22;54940;50.842;4.410;2022-09-16T15:55:37;13.70;99.90
68139;DHT22;54940;50.842;4.410;2022-09-16T16:01:09;13.50;99.90
68139;DHT22;54940;50.842;4.410;2022-09-16T16:03:58;13.50;99.90
68139;DHT22;54940;50.842;4.410;2022-09-16T16:14:22;13.50;99.90
68139;DHT22;54940;50.842;4.410;2022-09-16T16:16:49;13.50;99.90
68139;DHT22;54940;50.842;4.410;2022-09-16T16:19:15;13.50;99.90
68139;DHT22;54940;50.842;4.410;2022-09-16T16:21:41;13.50;99.90
68139;DHT22;54940;50.842;4.410;2022-09-16T16:24:15;13.40;99.90
68139;DHT22;54940;50.842;4.410;2022-09-16T16:26:42;13.30;99.90
68139;DHT22;54940;50.842;4.410;2022-09-16T16:29:07;13.20;99.90
68139;DHT22;54940;50.842;4.410;2022-09-16T16:31:33;13.30;99.90
68139;DHT22;54940;50.842;4.410;2022-09-16T16:34:01;13.20;99.90
68139;DHT22;54940;50.842;4.410;2022-09-16T16:36:28;13.20;99.90
68139;DHT22;54940;50.842;4.410;2022-09-16T16:38:54;13.20;99.90
68139;DHT22;54940;50.842;4.410;2022-09-16T16:41:21;13.20;99.90
68139;DHT22;54940;50.842;4.410;2022-09-16T16:43:48;13.10;99.90
68139;DHT22;54940;50.842;4.410;2022-09-16T16:46:14;13.00;99.90
68139;DHT22;54940;50.842;4.410;2022-09-16T16:48:41;13.00;99.90
68139;DHT22;54940;50.842;4.410;2022-09-16T16:51:08;12.90;99.90
68139;DHT22;54940;50.842;4.410;2022-09-16T16:53:34;12.80;99.90
68139;DHT22;54940;50.842;4.410;2022-09-16T16:56:04;12.60;99.90
68139;DHT22;54940;50.842;4.410;2022-09-16T16:58:33;12.50;99.90
68139;DHT22;54940;50.842;4.410;2022-09-16T17:01:09;12.50;99.90
68139;DHT22;54940;50.842;4.410;2022-09-16T17:03:37;12.60;99.90
68139;DHT22;54940;50.842;4.410;2022-09-16T17:06:03;12.70;99.90
68139;DHT22;54940;50.842;4.410;2022-09-16T17:08:29;12.70;99.90
68139;DHT22;54940;50.842;4.410;2022-09-16T17:11:06;12.60;99.90
68139;DHT22;54940;50.842;4.410;2022-09-16T17:13:32;12.50;99.90
68139;DHT22;54940;50.842;4.410;2022-09-16T17:15:58;12.50;99.90
68139;DHT22;54940;50.842;4.410;2022-09-16T17:18:23;12.60;99.90
68139;DHT22;54940;50.842;4.410;2022-09-16T17:20:49;12.80;99.90
68139;DHT22;54940;50.842;4.410;2022-09-16T17:23:15;12.80;99.90
68139;DHT22;54940;50.842;4.410;2022-09-16T17:25:40;12.90;99.90
68139;DHT22;54940;50.842;4.410;2022-09-16T17:28:06;13.10;99.90
68139;DHT22;54940;50.842;4.410;2022-09-16T17:30:32;12.90;99.90
68139;DHT22;54940;50.842;4.410;2022-09-16T17:32:58;13.00;99.90
68139;DHT22;54940;50.842;4.410;2022-09-16T17:35:23;12.90;99.90
68139;DHT22;54940;50.842;4.410;2022-09-16T17:37:49;13.00;99.90
68139;DHT22;54940;50.842;4.410;2022-09-16T17:40:14;13.00;99.90
68139;DHT22;54940;50.842;4.410;2022-09-16T17:42:40;13.10;99.90
68139;DHT22;54940;50.842;4.410;2022-09-16T17:45:06;13.00;99.90
68139;DHT22;54940;50.842;4.410;2022-09-16T17:47:33;13.10;99.90
68139;DHT22;54940;50.842;4.410;2022-09-16T17:49:58;13.20;99.90
68139;DHT22;54940;50.842;4.410;2022-09-16T17:52:28;13.20;99.90
68139;DHT22;54940;50.842;4.410;2022-09-16T17:54:54;13.30;99.90
68139;DHT22;54940;50.842;4.410;2022-09-16T17:57:20;13.20;99.90
68139;DHT22;54940;50.842;4.410;2022-09-16T17:59:47;13.30;99.90
68139;DHT22;54940;50.842;4.410;2022-09-16T18:02:13;13.30;99.90
68139;DHT22;54940;50.842;4.410;2022-09-16T18:04:40;13.30;99.90
68139;DHT22;54940;50.842;4.410;2022-09-16T18:07:07;13.20;99.90
68139;DHT22;54940;50.842;4.410;2022-09-16T18:09:33;13.30;99.90
68139;DHT22;54940;50.842;4.410;2022-09-16T18:11:59;13.20;99.90
68139;DHT22;54940;50.842;4.410;2022-09-16T18:14:25;13.10;99.90
68139;DHT22;54940;50.842;4.410;2022-09-16T18:16:51;12.90;99.90
68139;DHT22;54940;50.842;4.410;2022-09-16T18:19:16;12.90;99.90
68139;DHT22;54940;50.842;4.410;2022-09-16T18:21:42;12.80;99.90
68139;DHT22;54940;50.842;4.410;2022-09-16T18:24:10;12.80;99.90
68139;DHT22;54940;50.842;4.410;2022-09-16T18:26:38;12.90;99.90
68139;DHT22;54940;50.842;4.410;2022-09-16T18:29:06;12.70;99.90
68139;DHT22;54940;50.842;4.410;2022-09-16T18:31:32;12.70;99.90
68139;DHT22;54940;50.842;4.410;2022-09-16T18:33:58;12.70;99.90
68139;DHT22;54940;50.842;4.410;2022-09-16T18:36:25;12.70;99.90
68139;DHT22;54940;50.842;4.410;2022-09-16T18:38:55;12.70;99.90
68139;DHT22;54940;50.842;4.410;2022-09-16T18:41:28;12.90;99.90
68139;DHT22;54940;50.842;4.410;2022-09-16T18:43:59;12.90;99.90
68139;DHT22;54940;50.842;4.410;2022-09-16T18:46:34;13.00;99.90
68139;DHT22;54940;50.842;4.410;2022-09-16T18:49:00;13.10;99.90
68139;DHT22;54940;50.842;4.410;2022-09-16T18:51:32;13.00;99.90